createdAt,value
2023-05-10T00:00:13.695Z,9.30
2023-05-10T00:01:13.581Z,9.50
2023-05-10T00:02:13.656Z,9.60
2023-05-10T00:03:13.631Z,7.60
2023-05-10T00:04:13.664Z,8.90
2023-05-10T00:05:13.513Z,8.40
2023-05-10T00:06:13.512Z,7.10
2023-05-10T00:07:13.494Z,7.50
2023-05-10T00:08:13.523Z,7.70
2023-05-10T00:09:13.469Z,7.30
2023-05-10T00:10:13.695Z,8.20
2023-05-10T00:11:13.445Z,7.70
2023-05-10T00:12:13.442Z,7.00
2023-05-10T00:13:13.484Z,7.50
2023-05-10T00:14:13.421Z,7.50
2023-05-10T00:15:13.448Z,9.20
2023-05-10T00:16:13.409Z,8.00
2023-05-10T00:17:13.379Z,9.20
2023-05-10T00:18:13.370Z,8.60
2023-05-10T00:19:13.780Z,9.20
2023-05-10T00:20:13.521Z,8.50
2023-05-10T00:21:13.340Z,9.00
2023-05-10T00:22:13.366Z,9.80
2023-05-10T00:23:13.313Z,10.50
2023-05-10T00:24:13.362Z,10.50
2023-05-10T00:25:13.298Z,10.60
2023-05-10T00:26:13.303Z,9.80
2023-05-10T00:27:13.303Z,10.50
2023-05-10T00:28:13.274Z,12.60
2023-05-10T00:29:13.287Z,11.90
2023-05-10T00:30:13.528Z,10.60
2023-05-10T00:31:13.229Z,11.50
2023-05-10T00:32:13.294Z,10.70
2023-05-10T00:33:13.207Z,10.30
2023-05-10T00:34:13.253Z,11.60
2023-05-10T00:35:13.218Z,12.40
2023-05-10T00:36:13.227Z,12.30
2023-05-10T00:37:13.163Z,10.60
2023-05-10T00:38:13.158Z,11.50
2023-05-10T00:39:13.144Z,11.50
2023-05-10T00:40:13.203Z,13.00
2023-05-10T00:41:13.116Z,10.20
2023-05-10T00:42:13.105Z,11.90
2023-05-10T00:43:13.103Z,11.70
2023-05-10T00:44:13.093Z,11.10
2023-05-10T00:45:13.131Z,11.20
2023-05-10T00:46:13.103Z,13.10
2023-05-10T00:47:13.062Z,11.10
2023-05-10T00:48:13.051Z,11.60
2023-05-10T00:49:13.033Z,12.70
2023-05-10T00:50:13.081Z,12.90
2023-05-10T00:51:13.014Z,13.60
2023-05-10T00:52:13.006Z,14.30
2023-05-10T00:53:12.997Z,17.20
2023-05-10T00:54:12.985Z,13.30
2023-05-10T00:55:12.998Z,14.30
2023-05-10T00:56:12.963Z,14.90
2023-05-10T00:57:12.946Z,13.90
2023-05-10T00:58:12.954Z,14.70
2023-05-10T00:59:12.930Z,15.10
2023-05-10T01:00:12.940Z,15.20
2023-05-10T01:01:12.978Z,15.60
2023-05-10T01:02:13.006Z,15.10
2023-05-10T01:03:12.987Z,13.90
2023-05-10T01:04:12.874Z,13.20
2023-05-10T01:05:12.918Z,13.40
2023-05-10T01:06:12.888Z,11.00
2023-05-10T01:07:12.869Z,12.80
2023-05-10T01:08:12.893Z,11.60
2023-05-10T01:09:12.825Z,11.10
2023-05-10T01:10:12.835Z,11.50
2023-05-10T01:11:12.796Z,10.60
2023-05-10T01:12:12.838Z,9.20
2023-05-10T01:13:12.801Z,10.50
2023-05-10T01:14:12.800Z,10.70
2023-05-10T01:15:12.749Z,11.50
2023-05-10T01:16:12.867Z,9.80
2023-05-10T01:17:12.735Z,10.40
2023-05-10T01:18:12.726Z,10.40
2023-05-10T01:19:12.741Z,11.60
2023-05-10T01:20:12.725Z,11.60
2023-05-10T01:21:12.690Z,11.40
2023-05-10T01:22:12.731Z,10.90
2023-05-10T01:23:12.755Z,11.20
2023-05-10T01:24:12.669Z,12.90
2023-05-10T01:25:12.677Z,12.50
2023-05-10T01:26:12.657Z,10.80
2023-05-10T01:27:12.665Z,10.80
2023-05-10T01:28:12.638Z,11.70
2023-05-10T01:29:12.682Z,10.40
2023-05-10T01:30:21.674Z,11.20
2023-05-10T01:31:13.584Z,11.00
2023-05-10T01:32:12.575Z,10.10
2023-05-10T01:33:12.583Z,10.80
2023-05-10T01:34:12.556Z,11.20
2023-05-10T01:35:12.538Z,10.70
2023-05-10T01:36:12.537Z,12.70
2023-05-10T01:37:12.546Z,12.00
2023-05-10T01:38:12.509Z,12.90
2023-05-10T01:39:12.496Z,11.80
2023-05-10T01:40:12.489Z,10.40
2023-05-10T01:41:12.465Z,10.90
2023-05-10T01:42:12.476Z,10.50
2023-05-10T01:43:12.487Z,11.40
2023-05-10T01:44:12.437Z,10.10
2023-05-10T01:45:12.463Z,9.80
2023-05-10T01:46:12.463Z,9.80
2023-05-10T01:47:12.434Z,8.60
2023-05-10T01:48:12.517Z,6.30
2023-05-10T01:49:12.392Z,7.70
2023-05-10T01:50:12.443Z,8.20
2023-05-10T01:51:12.360Z,8.10
2023-05-10T01:52:12.381Z,7.40
2023-05-10T01:53:12.392Z,7.70
2023-05-10T01:54:12.326Z,6.40
2023-05-10T01:55:12.314Z,6.70
2023-05-10T01:56:12.329Z,6.70
2023-05-10T01:57:12.291Z,7.20
2023-05-10T01:58:12.290Z,6.60
2023-05-10T01:59:12.271Z,6.70
2023-05-10T02:00:12.274Z,6.60
2023-05-10T02:01:12.308Z,6.40
2023-05-10T02:02:12.243Z,6.90
2023-05-10T02:03:12.345Z,6.60
2023-05-10T02:04:12.291Z,6.60
2023-05-10T02:05:12.206Z,6.60
2023-05-10T02:06:12.197Z,6.80
2023-05-10T02:07:12.224Z,7.00
2023-05-10T02:08:12.217Z,8.00
2023-05-10T02:09:12.161Z,8.90
2023-05-10T02:10:12.187Z,8.00
2023-05-10T02:11:12.193Z,9.20
2023-05-10T02:12:12.141Z,8.10
2023-05-10T02:13:12.149Z,5.90
2023-05-10T02:14:12.132Z,7.30
2023-05-10T02:15:12.102Z,7.80
2023-05-10T02:16:12.156Z,6.60
2023-05-10T02:17:12.128Z,7.70
2023-05-10T02:18:12.070Z,6.50
2023-05-10T02:19:12.086Z,6.30
2023-05-10T02:20:12.053Z,6.50
2023-05-10T02:21:12.074Z,5.50
2023-05-10T02:22:12.050Z,8.20
2023-05-10T02:23:12.019Z,6.70
2023-05-10T02:24:12.014Z,6.50
2023-05-10T02:25:11.996Z,7.20
2023-05-10T02:26:11.988Z,5.80
2023-05-10T02:27:12.023Z,6.30
2023-05-10T02:28:11.963Z,7.70
2023-05-10T02:29:11.989Z,5.90
2023-05-10T02:30:11.940Z,5.80
2023-05-10T02:31:11.926Z,5.80
2023-05-10T02:32:12.057Z,6.60
2023-05-10T02:33:11.903Z,6.70
2023-05-10T02:34:11.911Z,6.50
2023-05-10T02:35:12.354Z,6.00
2023-05-10T02:36:11.891Z,5.90
2023-05-10T02:37:11.918Z,5.80
2023-05-10T02:38:11.851Z,5.20
2023-05-10T02:39:11.849Z,5.60
2023-05-10T02:40:11.860Z,5.70
2023-05-10T02:41:11.872Z,5.60
2023-05-10T02:42:11.815Z,5.90
2023-05-10T02:43:11.841Z,5.00
2023-05-10T02:44:11.793Z,5.90
2023-05-10T02:45:11.775Z,6.20
2023-05-10T02:46:11.777Z,5.30
2023-05-10T02:47:11.780Z,6.60
2023-05-10T02:48:11.775Z,8.10
2023-05-10T02:49:11.733Z,6.80
2023-05-10T02:50:11.731Z,9.20
2023-05-10T02:51:11.714Z,8.90
2023-05-10T02:52:11.704Z,8.40
2023-05-10T02:53:11.725Z,8.40
2023-05-10T02:54:11.736Z,10.00
2023-05-10T02:55:11.687Z,12.50
2023-05-10T02:56:11.657Z,11.30
2023-05-10T02:57:11.644Z,10.50
2023-05-10T02:58:11.681Z,11.50
2023-05-10T02:59:11.625Z,11.60
2023-05-10T03:00:11.628Z,13.60
2023-05-10T03:01:11.627Z,13.10
2023-05-10T03:02:12.526Z,13.90
2023-05-10T03:03:11.621Z,12.30
2023-05-10T03:04:11.608Z,12.90
2023-05-10T03:05:11.584Z,13.20
2023-05-10T03:06:11.589Z,14.00
2023-05-10T03:07:11.541Z,12.30
2023-05-10T03:08:11.534Z,13.90
2023-05-10T03:09:11.554Z,12.20
2023-05-10T03:10:11.553Z,13.50
2023-05-10T03:11:11.502Z,13.80
2023-05-10T03:12:11.491Z,16.30
2023-05-10T03:13:11.631Z,14.80
2023-05-10T03:14:11.466Z,14.60
2023-05-10T03:15:11.469Z,15.90
2023-05-10T03:16:11.485Z,14.90
2023-05-10T03:17:11.444Z,13.50
2023-05-10T03:18:11.443Z,13.30
2023-05-10T03:19:11.444Z,15.90
2023-05-10T03:20:11.414Z,17.70
2023-05-10T03:21:11.386Z,15.30
2023-05-10T03:22:11.381Z,16.60
2023-05-10T03:23:11.429Z,14.80
2023-05-10T03:24:11.391Z,16.80
2023-05-10T03:25:11.339Z,18.20
2023-05-10T03:26:11.340Z,17.00
2023-05-10T03:27:11.328Z,18.20
2023-05-10T03:28:11.322Z,16.60
2023-05-10T03:29:11.340Z,15.30
2023-05-10T03:30:11.293Z,17.20
2023-05-10T03:31:11.289Z,18.00
2023-05-10T03:32:11.288Z,18.00
2023-05-10T03:33:11.255Z,18.00
2023-05-10T03:34:11.300Z,18.50
2023-05-10T03:35:12.260Z,19.20
2023-05-10T03:36:11.224Z,18.90
2023-05-10T03:37:11.216Z,20.00
2023-05-10T03:38:11.270Z,20.00
2023-05-10T03:39:11.199Z,20.60
2023-05-10T03:40:11.192Z,21.90
2023-05-10T03:41:11.174Z,20.00
2023-05-10T03:42:11.165Z,22.30
2023-05-10T03:43:11.303Z,19.50
2023-05-10T03:44:11.149Z,32.80
2023-05-10T03:45:11.142Z,23.10
2023-05-10T03:46:11.154Z,23.50
2023-05-10T03:47:11.118Z,23.60
2023-05-10T03:48:11.114Z,26.20
2023-05-10T03:49:11.133Z,28.00
2023-05-10T03:50:11.067Z,28.30
2023-05-10T03:51:11.070Z,32.20
2023-05-10T03:52:11.067Z,33.60
2023-05-10T03:53:11.101Z,32.80
2023-05-10T03:54:12.572Z,33.80
2023-05-10T03:55:11.048Z,34.80
2023-05-10T03:56:11.056Z,35.80
2023-05-10T03:57:11.017Z,31.60
2023-05-10T03:58:11.068Z,39.30
2023-05-10T03:59:10.984Z,39.30
2023-05-10T04:00:10.999Z,41.30
2023-05-10T04:01:10.960Z,44.00
2023-05-10T04:02:11.022Z,42.40
2023-05-10T04:03:11.170Z,40.30
2023-05-10T04:04:10.992Z,41.90
2023-05-10T04:05:10.967Z,42.30
2023-05-10T04:06:10.936Z,43.40
2023-05-10T04:07:10.892Z,47.30
2023-05-10T04:08:10.920Z,43.50
2023-05-10T04:09:10.987Z,44.40
2023-05-10T04:10:10.867Z,45.00
2023-05-10T04:11:10.853Z,46.10
2023-05-10T04:12:11.207Z,47.20
2023-05-10T04:13:10.863Z,47.00
2023-05-10T04:14:10.852Z,42.10
2023-05-10T04:15:10.801Z,43.30
2023-05-10T04:16:10.789Z,47.20
2023-05-10T04:17:10.843Z,41.50
2023-05-10T04:18:10.859Z,47.10
2023-05-10T04:19:10.790Z,47.60
2023-05-10T04:20:10.769Z,49.90
2023-05-10T04:21:10.740Z,52.90
2023-05-10T04:22:10.925Z,52.90
2023-05-10T04:23:10.711Z,48.50
2023-05-10T04:24:10.699Z,54.50
2023-05-10T04:25:10.694Z,51.90
2023-05-10T04:26:10.703Z,54.50
2023-05-10T04:27:10.679Z,56.10
2023-05-10T04:28:10.656Z,57.70
2023-05-10T04:29:10.712Z,57.90
2023-05-10T04:30:10.632Z,54.60
2023-05-10T04:31:10.722Z,56.20
2023-05-10T04:32:10.647Z,57.90
2023-05-10T04:33:10.613Z,57.90
2023-05-10T04:34:10.604Z,63.40
2023-05-10T04:35:10.647Z,59.40
2023-05-10T04:36:10.571Z,64.90
2023-05-10T04:37:10.603Z,59.90
2023-05-10T04:38:10.554Z,63.20
2023-05-10T04:39:10.533Z,62.90
2023-05-10T04:40:10.559Z,64.00
2023-05-10T04:41:10.537Z,62.40
2023-05-10T04:42:10.503Z,66.00
2023-05-10T04:43:10.497Z,65.30
2023-05-10T04:44:10.503Z,65.90
2023-05-10T04:45:11.794Z,64.90
2023-05-10T04:46:10.482Z,66.90
2023-05-10T04:47:12.578Z,66.60
2023-05-10T04:48:10.436Z,67.90
2023-05-10T04:49:10.441Z,71.50
2023-05-10T04:50:10.500Z,74.00
2023-05-10T04:51:10.418Z,73.20
2023-05-10T04:52:10.393Z,77.90
2023-05-10T04:53:10.393Z,79.20
2023-05-10T04:54:10.386Z,76.50
2023-05-10T04:55:10.518Z,83.10
2023-05-10T04:56:10.392Z,75.20
2023-05-10T04:57:10.347Z,73.20
2023-05-10T04:58:10.343Z,76.80
2023-05-10T04:59:10.328Z,73.80
2023-05-10T05:00:10.306Z,78.90
2023-05-10T05:01:10.377Z,73.30
2023-05-10T05:02:10.429Z,77.50
2023-05-10T05:03:10.307Z,81.90
2023-05-10T05:04:10.267Z,77.70
2023-05-10T05:05:10.259Z,73.50
2023-05-10T05:06:10.244Z,79.60
2023-05-10T05:07:12.117Z,74.70
2023-05-10T05:08:10.218Z,73.90
2023-05-10T05:09:10.224Z,81.70
2023-05-10T05:10:14.073Z,78.90
2023-05-10T05:11:10.196Z,71.50
2023-05-10T05:12:10.234Z,73.20
2023-05-10T05:13:10.220Z,79.20
2023-05-10T05:14:10.157Z,80.70
2023-05-10T05:15:12.668Z,80.40
2023-05-10T05:16:12.552Z,82.70
2023-05-10T05:17:10.132Z,76.60
2023-05-10T05:18:10.163Z,82.50
2023-05-10T05:19:10.110Z,81.50
2023-05-10T05:20:10.089Z,81.70
2023-05-10T05:21:11.858Z,81.10
2023-05-10T05:22:10.066Z,76.90
2023-05-10T05:23:10.057Z,72.00
2023-05-10T05:24:10.043Z,75.30
2023-05-10T05:25:10.090Z,77.70
2023-05-10T05:26:11.823Z,77.10
2023-05-10T05:27:10.011Z,77.20
2023-05-10T05:28:10.069Z,76.00
2023-05-10T05:29:09.999Z,69.60
2023-05-10T05:30:10.021Z,76.00
2023-05-10T05:31:10.272Z,72.90
2023-05-10T05:32:10.031Z,76.30
2023-05-10T05:33:10.002Z,74.90
2023-05-10T05:34:09.989Z,77.30
2023-05-10T05:35:09.937Z,74.50
2023-05-10T05:36:09.968Z,76.90
2023-05-10T05:37:09.966Z,77.50
2023-05-10T05:38:09.894Z,79.40
2023-05-10T05:39:09.887Z,72.00
2023-05-10T05:40:09.882Z,76.40
2023-05-10T05:41:11.901Z,74.50
2023-05-10T05:42:09.848Z,78.20
2023-05-10T05:43:09.854Z,74.40
2023-05-10T05:44:09.840Z,78.90
2023-05-10T05:45:09.903Z,80.70
2023-05-10T05:46:09.949Z,79.80
2023-05-10T05:47:09.847Z,76.20
2023-05-10T05:48:09.864Z,76.70
2023-05-10T05:49:09.776Z,76.70
2023-05-10T05:50:14.118Z,74.70
2023-05-10T05:51:09.806Z,81.00
2023-05-10T05:52:13.729Z,72.60
2023-05-10T05:53:09.741Z,77.60
2023-05-10T05:54:09.720Z,76.70
2023-05-10T05:55:09.719Z,75.00
2023-05-10T05:56:09.701Z,71.60
2023-05-10T05:57:09.755Z,68.60
2023-05-10T05:58:09.678Z,77.50
2023-05-10T05:59:09.791Z,70.00
2023-05-10T06:00:09.671Z,74.30
2023-05-10T06:01:09.667Z,76.70
2023-05-10T06:02:09.659Z,78.80
2023-05-10T06:03:09.720Z,71.50
2023-05-10T06:04:09.670Z,75.80
2023-05-10T06:05:13.948Z,71.70
2023-05-10T06:06:09.607Z,69.80
2023-05-10T06:07:09.595Z,66.60
2023-05-10T06:08:09.562Z,69.30
2023-05-10T06:09:09.573Z,70.90
2023-05-10T06:10:09.548Z,68.60
2023-05-10T06:11:09.573Z,71.40
2023-05-10T06:12:09.595Z,76.10
2023-05-10T06:13:09.569Z,77.10
2023-05-10T06:14:11.228Z,74.80
2023-05-10T06:15:09.501Z,80.70
2023-05-10T06:16:09.526Z,79.60
2023-05-10T06:17:09.475Z,76.80
2023-05-10T06:18:09.569Z,77.40
2023-05-10T06:19:09.459Z,75.20
2023-05-10T06:20:09.442Z,75.40
2023-05-10T06:21:09.458Z,76.20
2023-05-10T06:22:09.454Z,78.30
2023-05-10T06:23:11.689Z,75.00
2023-05-10T06:24:09.403Z,74.60
2023-05-10T06:25:11.426Z,81.90
2023-05-10T06:26:09.421Z,71.80
2023-05-10T06:27:09.403Z,74.30
2023-05-10T06:28:11.140Z,75.80
2023-05-10T06:29:09.347Z,79.20
2023-05-10T06:30:13.503Z,74.30
2023-05-10T06:31:09.359Z,74.30
2023-05-10T06:32:09.308Z,71.60
2023-05-10T06:33:09.421Z,71.10
2023-05-10T06:34:09.296Z,69.30
2023-05-10T06:35:09.318Z,70.80
2023-05-10T06:36:09.279Z,73.80
2023-05-10T06:37:09.263Z,69.40
2023-05-10T06:38:16.168Z,74.90
2023-05-10T06:39:09.262Z,71.40
2023-05-10T06:40:09.224Z,66.70
2023-05-10T06:41:09.221Z,62.80
2023-05-10T06:42:09.202Z,65.20
2023-05-10T06:43:09.204Z,68.00
2023-05-10T06:44:09.229Z,68.10
2023-05-10T06:45:09.169Z,66.00
2023-05-10T06:46:09.201Z,64.20
2023-05-10T06:47:09.229Z,64.00
2023-05-10T06:48:09.198Z,65.90
2023-05-10T06:49:09.274Z,60.90
2023-05-10T06:50:09.136Z,63.70
2023-05-10T06:51:09.110Z,64.00
2023-05-10T06:52:09.094Z,62.00
2023-05-10T06:53:13.287Z,61.80
2023-05-10T06:54:09.073Z,62.20
2023-05-10T06:55:09.079Z,67.00
2023-05-10T06:56:09.087Z,67.90
2023-05-10T06:57:19.395Z,65.00
2023-05-10T06:58:10.063Z,66.50
2023-05-10T06:59:09.052Z,74.50
2023-05-10T07:00:09.039Z,68.60
2023-05-10T07:01:09.053Z,64.60
2023-05-10T07:02:09.074Z,68.90
2023-05-10T07:03:09.034Z,65.40
2023-05-10T07:04:08.962Z,67.20
2023-05-10T07:05:08.949Z,67.50
2023-05-10T07:06:15.721Z,70.20
2023-05-10T07:07:09.959Z,69.40
2023-05-10T07:08:08.914Z,68.40
2023-05-10T07:09:08.936Z,76.10
2023-05-10T07:10:08.898Z,72.00
2023-05-10T07:11:08.909Z,69.30
2023-05-10T07:12:13.448Z,67.30
2023-05-10T07:13:08.974Z,63.50
2023-05-10T07:14:08.869Z,66.90
2023-05-10T07:15:08.878Z,66.10
2023-05-10T07:16:08.929Z,63.20
2023-05-10T07:17:08.907Z,62.70
2023-05-10T07:18:11.416Z,69.70
2023-05-10T07:19:08.795Z,61.80
2023-05-10T07:20:08.788Z,62.60
2023-05-10T07:21:08.828Z,62.90
2023-05-10T07:22:08.768Z,66.70
2023-05-10T07:23:08.750Z,68.20
2023-05-10T07:24:10.564Z,67.40
2023-05-10T07:25:08.730Z,64.80
2023-05-10T07:26:08.719Z,64.90
2023-05-10T07:27:08.709Z,62.50
2023-05-10T07:28:08.698Z,57.50
2023-05-10T07:29:08.691Z,51.70
2023-05-10T07:30:08.736Z,67.00
2023-05-10T07:31:08.759Z,62.50
2023-05-10T07:32:08.682Z,57.30
2023-05-10T07:33:08.695Z,60.70
2023-05-10T07:34:08.623Z,56.70
2023-05-10T07:35:10.397Z,58.60
2023-05-10T07:36:08.617Z,59.30
2023-05-10T07:37:12.650Z,59.90
2023-05-10T07:38:08.588Z,58.50
2023-05-10T07:39:08.580Z,55.20
2023-05-10T07:40:08.605Z,57.50
2023-05-10T07:41:08.582Z,58.30
2023-05-10T07:42:09.199Z,55.60
2023-05-10T07:43:08.542Z,57.40
2023-05-10T07:44:08.510Z,60.30
2023-05-10T07:45:08.507Z,60.50
2023-05-10T07:46:08.537Z,60.10
2023-05-10T07:47:08.499Z,60.00
2023-05-10T07:48:08.558Z,58.80
2023-05-10T07:49:08.476Z,60.30
2023-05-10T07:50:08.454Z,60.40
2023-05-10T07:51:08.447Z,61.70
2023-05-10T07:52:10.369Z,64.10
2023-05-10T07:53:08.417Z,59.80
2023-05-10T07:54:08.432Z,59.00
2023-05-10T07:55:08.444Z,64.80
2023-05-10T07:56:08.432Z,63.10
2023-05-10T07:57:08.362Z,60.00
2023-05-10T07:58:08.366Z,60.80
2023-05-10T07:59:10.092Z,57.10
2023-05-10T08:00:08.352Z,56.60
2023-05-10T08:01:11.557Z,57.90
2023-05-10T08:02:08.391Z,56.90
2023-05-10T08:03:08.568Z,55.90
2023-05-10T08:04:08.413Z,53.30
2023-05-10T08:05:08.345Z,53.10
2023-05-10T08:06:08.276Z,52.20
2023-05-10T08:07:08.316Z,55.40
2023-05-10T08:08:08.252Z,54.10
2023-05-10T08:09:08.244Z,52.10
2023-05-10T08:10:08.221Z,54.10
2023-05-10T08:11:08.214Z,52.50
2023-05-10T08:12:08.217Z,52.10
2023-05-10T08:13:08.228Z,48.30
2023-05-10T08:14:08.199Z,48.70
2023-05-10T08:15:08.180Z,49.60
2023-05-10T08:16:08.207Z,48.40
2023-05-10T08:17:08.164Z,51.80
2023-05-10T08:18:08.196Z,49.80
2023-05-10T08:19:09.839Z,53.50
2023-05-10T08:20:08.129Z,52.30
2023-05-10T08:21:08.099Z,53.90
2023-05-10T08:22:08.106Z,53.60
2023-05-10T08:23:08.119Z,52.10
2023-05-10T08:24:09.952Z,51.80
2023-05-10T08:25:08.058Z,52.60
2023-05-10T08:26:08.106Z,52.90
2023-05-10T08:27:08.049Z,52.20
2023-05-10T08:28:09.926Z,53.40
2023-05-10T08:29:08.051Z,45.50
2023-05-10T08:30:08.045Z,53.70
2023-05-10T08:31:08.080Z,46.80
2023-05-10T08:32:07.997Z,47.90
2023-05-10T08:33:08.017Z,45.30
2023-05-10T08:34:07.972Z,42.50
2023-05-10T08:35:07.955Z,44.20
2023-05-10T08:36:07.965Z,47.30
2023-05-10T08:37:08.024Z,47.50
2023-05-10T08:38:07.938Z,43.60
2023-05-10T08:39:16.190Z,45.30
2023-05-10T08:40:08.947Z,44.30
2023-05-10T08:41:07.893Z,46.00
2023-05-10T08:42:07.922Z,46.80
2023-05-10T08:43:07.883Z,50.20
2023-05-10T08:44:07.912Z,48.10
2023-05-10T08:45:07.899Z,47.60
2023-05-10T08:46:07.915Z,53.00
2023-05-10T08:47:07.919Z,53.50
2023-05-10T08:48:07.933Z,49.60
2023-05-10T08:49:07.806Z,53.20
2023-05-10T08:50:07.804Z,61.30
2023-05-10T08:51:07.789Z,59.60
2023-05-10T08:52:07.772Z,62.30
2023-05-10T08:53:10.159Z,59.90
2023-05-10T08:54:07.759Z,64.20
2023-05-10T08:55:07.762Z,66.60
2023-05-10T08:56:07.782Z,63.10
2023-05-10T08:57:07.736Z,60.20
2023-05-10T08:58:07.750Z,66.80
2023-05-10T08:59:07.744Z,59.30
2023-05-10T09:00:07.695Z,56.90
2023-05-10T09:01:07.702Z,59.10
2023-05-10T09:02:07.678Z,60.40
2023-05-10T09:03:07.692Z,57.40
2023-05-10T09:04:07.806Z,54.60
2023-05-10T09:05:07.698Z,56.20
2023-05-10T09:06:07.636Z,52.80
2023-05-10T09:07:07.638Z,52.00
2023-05-10T09:08:07.674Z,49.70
2023-05-10T09:09:07.640Z,55.50
2023-05-10T09:10:07.580Z,52.70
2023-05-10T09:11:07.572Z,56.80
2023-05-10T09:12:07.564Z,59.00
2023-05-10T09:13:07.554Z,55.30
2023-05-10T09:14:07.603Z,59.50
2023-05-10T09:15:07.538Z,58.70
2023-05-10T09:16:20.556Z,53.60
2023-05-10T09:17:08.551Z,48.30
2023-05-10T09:18:07.536Z,55.00
2023-05-10T09:19:07.582Z,50.90
2023-05-10T09:20:08.161Z,49.20
2023-05-10T09:21:07.493Z,46.60
2023-05-10T09:22:07.474Z,48.00
2023-05-10T09:23:07.445Z,45.30
2023-05-10T09:24:09.018Z,45.80
2023-05-10T09:25:07.422Z,45.80
2023-05-10T09:26:07.454Z,48.50
2023-05-10T09:27:07.428Z,45.40
2023-05-10T09:28:07.402Z,46.20
2023-05-10T09:29:07.381Z,36.30
2023-05-10T09:30:12.355Z,35.80
2023-05-10T09:31:07.366Z,34.20
2023-05-10T09:32:09.655Z,38.10
2023-05-10T09:33:07.387Z,36.90
2023-05-10T09:34:07.333Z,38.80
2023-05-10T09:35:07.323Z,36.50
2023-05-10T09:36:08.967Z,39.80
2023-05-10T09:37:07.288Z,39.10
2023-05-10T09:38:07.282Z,42.40
2023-05-10T09:39:07.268Z,41.90
2023-05-10T09:40:14.194Z,40.70
2023-05-10T09:41:07.250Z,43.40
2023-05-10T09:42:11.048Z,40.90
2023-05-10T09:43:08.687Z,40.40
2023-05-10T09:44:07.213Z,41.20
2023-05-10T09:45:07.213Z,40.10
2023-05-10T09:46:07.280Z,41.20
2023-05-10T09:47:07.186Z,41.70
2023-05-10T09:48:07.393Z,38.00
2023-05-10T09:49:07.155Z,37.80
2023-05-10T09:50:07.154Z,38.70
2023-05-10T09:51:07.168Z,40.30
2023-05-10T09:52:07.189Z,40.00
2023-05-10T09:53:07.113Z,39.60
2023-05-10T09:54:07.110Z,38.80
2023-05-10T09:55:07.090Z,40.80
2023-05-10T09:56:07.118Z,39.30
2023-05-10T09:57:07.076Z,39.60
2023-05-10T09:58:07.078Z,38.00
2023-05-10T09:59:07.090Z,41.00
2023-05-10T10:00:07.038Z,38.00
2023-05-10T10:01:07.047Z,37.80
2023-05-10T10:02:07.052Z,37.40
2023-05-10T10:03:07.092Z,41.40
2023-05-10T10:04:07.083Z,35.70
2023-05-10T10:05:07.039Z,37.90
2023-05-10T10:06:15.860Z,37.60
2023-05-10T10:07:07.970Z,39.60
2023-05-10T10:08:06.961Z,46.50
2023-05-10T10:09:06.984Z,46.00
2023-05-10T10:10:06.952Z,46.60
2023-05-10T10:11:06.921Z,43.10
2023-05-10T10:12:06.950Z,47.50
2023-05-10T10:13:06.914Z,53.00
2023-05-10T10:14:06.935Z,59.50
2023-05-10T10:15:06.876Z,56.30
2023-05-10T10:16:06.927Z,60.60
2023-05-10T10:17:08.955Z,59.30
2023-05-10T10:18:06.885Z,62.50
2023-05-10T10:19:06.933Z,60.30
2023-05-10T10:20:06.820Z,56.90
2023-05-10T10:21:06.811Z,55.10
2023-05-10T10:22:06.993Z,65.80
2023-05-10T10:23:06.787Z,60.10
2023-05-10T10:24:06.782Z,61.00
2023-05-10T10:25:08.610Z,55.70
2023-05-10T10:26:06.804Z,52.70
2023-05-10T10:27:06.743Z,53.00
2023-05-10T10:28:06.752Z,55.00
2023-05-10T10:29:06.776Z,47.00
2023-05-10T10:30:06.721Z,44.10
2023-05-10T10:31:06.748Z,40.10
2023-05-10T10:32:08.828Z,42.30
2023-05-10T10:33:16.513Z,41.70
2023-05-10T10:34:07.682Z,43.50
2023-05-10T10:35:06.683Z,38.30
2023-05-10T10:36:06.717Z,46.30
2023-05-10T10:37:06.644Z,46.80
2023-05-10T10:38:06.687Z,47.30
2023-05-10T10:39:06.620Z,49.50
2023-05-10T10:40:06.641Z,47.60
2023-05-10T10:41:06.610Z,45.80
2023-05-10T10:42:06.607Z,45.40
2023-05-10T10:43:06.634Z,45.30
2023-05-10T10:44:06.565Z,37.80
2023-05-10T10:45:06.721Z,37.50
2023-05-10T10:46:06.548Z,37.80
2023-05-10T10:47:06.619Z,44.80
2023-05-10T10:48:06.562Z,39.40
2023-05-10T10:49:08.140Z,36.20
2023-05-10T10:50:11.407Z,37.60
2023-05-10T10:51:06.482Z,36.30
2023-05-10T10:52:06.679Z,37.00
2023-05-10T10:53:06.524Z,33.80
2023-05-10T10:54:06.463Z,34.00
2023-05-10T10:55:06.442Z,36.00
2023-05-10T10:56:06.434Z,38.00
2023-05-10T10:57:06.460Z,35.10
2023-05-10T10:58:08.318Z,36.60
2023-05-10T10:59:06.451Z,38.70
2023-05-10T11:00:06.446Z,37.90
2023-05-10T11:01:06.414Z,35.80
2023-05-10T11:02:06.371Z,39.20
2023-05-10T11:03:06.395Z,40.20
2023-05-10T11:04:06.401Z,32.40
2023-05-10T11:05:06.373Z,37.10
2023-05-10T11:06:06.354Z,43.30
2023-05-10T11:07:06.350Z,42.30
2023-05-10T11:08:06.306Z,49.20
2023-05-10T11:09:06.291Z,44.50
2023-05-10T11:10:06.324Z,49.00
2023-05-10T11:11:06.261Z,51.20
2023-05-10T11:12:09.495Z,49.30
2023-05-10T11:13:06.248Z,46.80
2023-05-10T11:14:06.275Z,44.80
2023-05-10T11:15:07.955Z,48.50
2023-05-10T11:16:06.215Z,46.80
2023-05-10T11:17:06.303Z,41.10
2023-05-10T11:18:06.299Z,45.80
2023-05-10T11:19:06.263Z,47.50
2023-05-10T11:20:07.887Z,38.20
2023-05-10T11:21:06.250Z,38.30
2023-05-10T11:22:06.195Z,36.40
2023-05-10T11:23:06.152Z,35.70
2023-05-10T11:24:06.141Z,35.50
2023-05-10T11:25:13.841Z,29.90
2023-05-10T11:26:06.101Z,35.70
2023-05-10T11:27:06.143Z,33.30
2023-05-10T11:28:06.100Z,29.80
2023-05-10T11:29:06.174Z,31.00
2023-05-10T11:30:06.066Z,31.50
2023-05-10T11:31:06.142Z,29.70
2023-05-10T11:32:06.050Z,30.50
2023-05-10T11:33:06.172Z,30.80
2023-05-10T11:34:07.979Z,31.60
2023-05-10T11:35:06.011Z,33.10
2023-05-10T11:36:06.022Z,30.60
2023-05-10T11:37:06.006Z,30.70
2023-05-10T11:38:06.012Z,32.10
2023-05-10T11:39:06.059Z,31.60
2023-05-10T11:40:05.954Z,31.50
2023-05-10T11:41:05.942Z,29.60
2023-05-10T11:42:05.982Z,28.30
2023-05-10T11:43:05.939Z,27.50
2023-05-10T11:44:05.928Z,26.40
2023-05-10T11:45:05.909Z,26.50
2023-05-10T11:46:05.955Z,28.30
2023-05-10T11:47:05.889Z,26.70
2023-05-10T11:48:05.916Z,26.50
2023-05-10T11:49:05.901Z,26.30
2023-05-10T11:50:05.853Z,28.30
2023-05-10T11:51:05.856Z,25.70
2023-05-10T11:52:08.094Z,28.10
2023-05-10T11:53:05.814Z,23.20
2023-05-10T11:54:05.806Z,24.50
2023-05-10T11:55:05.838Z,26.20
2023-05-10T11:56:05.800Z,29.40
2023-05-10T11:57:05.775Z,25.50
2023-05-10T11:58:05.761Z,25.30
2023-05-10T11:59:05.775Z,22.70
2023-05-10T12:00:05.736Z,26.40
2023-05-10T12:01:05.764Z,24.30
2023-05-10T12:02:05.732Z,26.50
2023-05-10T12:03:05.832Z,25.60
2023-05-10T12:04:05.837Z,23.00
2023-05-10T12:05:07.730Z,20.40
2023-05-10T12:06:05.673Z,22.10
2023-05-10T12:07:05.663Z,22.80
2023-05-10T12:08:07.438Z,21.70
2023-05-10T12:09:05.650Z,21.80
2023-05-10T12:10:05.660Z,22.80
2023-05-10T12:11:05.629Z,22.70
2023-05-10T12:12:05.608Z,21.30
2023-05-10T12:13:05.620Z,22.80
2023-05-10T12:14:05.623Z,23.20
2023-05-10T12:15:05.576Z,20.80
2023-05-10T12:16:05.635Z,19.40
2023-05-10T12:17:05.629Z,22.00
2023-05-10T12:18:05.589Z,22.30
2023-05-10T12:19:05.646Z,21.50
2023-05-10T12:20:05.511Z,25.20
2023-05-10T12:21:05.525Z,23.70
2023-05-10T12:22:05.516Z,23.90
2023-05-10T12:23:05.490Z,23.00
2023-05-10T12:24:05.531Z,22.00
2023-05-10T12:25:05.479Z,24.20
2023-05-10T12:26:05.446Z,22.90
2023-05-10T12:27:05.438Z,23.30
2023-05-10T12:28:05.475Z,22.40
2023-05-10T12:29:05.446Z,29.90
2023-05-10T12:30:05.416Z,23.30
2023-05-10T12:31:05.514Z,24.80
2023-05-10T12:32:05.415Z,27.30
2023-05-10T12:33:05.498Z,25.20
2023-05-10T12:34:06.541Z,26.40
2023-05-10T12:35:05.361Z,23.20
2023-05-10T12:36:05.343Z,25.30
2023-05-10T12:37:05.345Z,26.40
2023-05-10T12:38:05.322Z,26.50
2023-05-10T12:39:05.349Z,24.50
2023-05-10T12:40:05.317Z,29.30
2023-05-10T12:41:05.373Z,29.00
2023-05-10T12:42:10.533Z,26.50
2023-05-10T12:43:05.293Z,32.90
2023-05-10T12:44:05.269Z,32.30
2023-05-10T12:45:05.290Z,30.10
2023-05-10T12:46:05.280Z,31.00
2023-05-10T12:47:09.079Z,28.80
2023-05-10T12:48:05.270Z,28.40
2023-05-10T12:49:09.640Z,31.60
2023-05-10T12:50:05.243Z,31.10
2023-05-10T12:51:05.191Z,31.50
2023-05-10T12:52:05.175Z,29.30
2023-05-10T12:53:05.186Z,27.30
2023-05-10T12:54:05.195Z,27.70
2023-05-10T12:55:05.156Z,29.20